createdAt,value
2019-03-03T00:00:02.348Z,93.55
2019-03-03T00:00:28.462Z,94.03
2019-03-03T00:00:54.569Z,93.7
2019-03-03T00:01:20.671Z,93.79
2019-03-03T00:01:46.783Z,93.98
2019-03-03T00:02:12.885Z,93.88
2019-03-03T00:02:38.999Z,94.03
2019-03-03T00:03:05.107Z,93.93
2019-03-03T00:03:31.213Z,93.98
2019-03-03T00:03:57.314Z,93.79
2019-03-03T00:04:23.452Z,94.22
2019-03-03T00:04:49.559Z,94.08
2019-03-03T00:05:15.664Z,94.12
2019-03-03T00:05:41.775Z,94.74
2019-03-03T00:06:07.876Z,94.51
2019-03-03T00:06:33.983Z,94.74
2019-03-03T00:07:00.089Z,94.65
2019-03-03T00:07:26.226Z,94.74
2019-03-03T00:07:52.363Z,94.56
2019-03-03T00:08:18.467Z,94.74
2019-03-03T00:08:45.569Z,94.74
2019-03-03T00:09:11.706Z,94.93
2019-03-03T00:09:37.805Z,94.84
2019-03-03T00:10:03.949Z,94.74
2019-03-03T00:10:30.049Z,94.65
2019-03-03T00:10:56.157Z,94.93
2019-03-03T00:11:22.267Z,95.12
2019-03-03T00:11:48.371Z,95.12
2019-03-03T00:12:14.476Z,95.03
2019-03-03T00:12:40.575Z,95.32
2019-03-03T00:13:06.681Z,94.46
2019-03-03T00:13:32.792Z,95.12
2019-03-03T00:13:58.906Z,94.93
2019-03-03T00:14:25.015Z,95.41
2019-03-03T00:14:51.118Z,95.51
2019-03-03T00:15:17.221Z,95.51
2019-03-03T00:15:43.334Z,95.22
2019-03-03T00:16:09.435Z,95.7
2019-03-03T00:16:35.540Z,95.41
2019-03-03T00:17:01.712Z,95.61
2019-03-03T00:17:27.818Z,95.22
2019-03-03T00:17:53.952Z,95.12
2019-03-03T00:18:20.063Z,95.32
2019-03-03T00:18:46.171Z,95.22
2019-03-03T00:19:12.280Z,95.03
2019-03-03T00:19:38.387Z,95.41
2019-03-03T00:20:04.527Z,95.03
2019-03-03T00:20:30.632Z,95.41
2019-03-03T00:20:56.733Z,95.12
2019-03-03T00:21:22.836Z,95.7
2019-03-03T00:21:48.975Z,95.41
2019-03-03T00:22:15.117Z,95.32
2019-03-03T00:22:41.253Z,95.51
2019-03-03T00:23:07.357Z,95.7
2019-03-03T00:23:33.487Z,95.61
2019-03-03T00:23:59.626Z,95.79
2019-03-03T00:24:25.735Z,95.89
2019-03-03T00:24:51.861Z,95.98
2019-03-03T00:25:17.970Z,95.61
2019-03-03T00:25:45.092Z,95.7
2019-03-03T00:26:11.206Z,95.61
2019-03-03T00:26:37.336Z,95.7
2019-03-03T00:27:03.449Z,96.08
2019-03-03T00:27:29.586Z,96.56
2019-03-03T00:27:55.747Z,96.27
2019-03-03T00:28:21.797Z,95.98
2019-03-03T00:28:47.909Z,96.08
2019-03-03T00:29:14.014Z,96.46
2019-03-03T00:29:40.120Z,96.46
2019-03-03T00:30:06.226Z,96.36
2019-03-03T00:30:32.336Z,96.36
2019-03-03T00:30:58.440Z,97.03
2019-03-03T00:31:24.548Z,96.36
2019-03-03T00:31:50.652Z,96.36
2019-03-03T00:32:16.757Z,96.46
2019-03-03T00:32:42.859Z,96.36
2019-03-03T00:33:08.966Z,95.98
2019-03-03T00:33:35.078Z,96.46
2019-03-03T00:34:01.180Z,96.56
2019-03-03T00:34:27.321Z,97.03
2019-03-03T00:34:53.425Z,97.03
2019-03-03T00:35:19.538Z,97.03
2019-03-03T00:35:46.629Z,96.56
2019-03-03T00:36:12.744Z,96.46
2019-03-03T00:36:38.848Z,96.17
2019-03-03T00:37:04.958Z,96.08
2019-03-03T00:37:31.056Z,95.89
2019-03-03T00:37:57.162Z,96.08
2019-03-03T00:38:23.276Z,95.7
2019-03-03T00:38:49.412Z,95.98
2019-03-03T00:39:15.550Z,95.79
2019-03-03T00:39:41.682Z,95.79
2019-03-03T00:40:07.799Z,95.89
2019-03-03T00:40:33.898Z,96.27
2019-03-03T00:41:00.015Z,96.17
2019-03-03T00:41:26.147Z,95.79
2019-03-03T00:41:52.259Z,95.79
2019-03-03T00:42:18.363Z,95.98
2019-03-03T00:42:44.473Z,96.36
2019-03-03T00:43:10.611Z,96.27
2019-03-03T00:43:36.720Z,96.46
2019-03-03T00:44:02.822Z,95.98
2019-03-03T00:44:28.930Z,96.56
2019-03-03T00:44:56.031Z,96.36
2019-03-03T00:45:22.137Z,96.75
2019-03-03T00:45:48.244Z,96.27
2019-03-03T00:46:14.352Z,97.03
2019-03-03T00:46:40.451Z,96.84
2019-03-03T00:47:06.565Z,96.75
2019-03-03T00:47:32.666Z,96.84
2019-03-03T00:47:58.779Z,97.22
2019-03-03T00:48:24.883Z,97.41
2019-03-03T00:48:50.995Z,97.22
2019-03-03T00:49:17.098Z,97.32
2019-03-03T00:49:43.211Z,96.94
2019-03-03T00:50:09.320Z,97.32
2019-03-03T00:50:35.424Z,97.61
2019-03-03T00:51:01.533Z,97.32
2019-03-03T00:51:27.634Z,97.89
2019-03-03T00:51:53.750Z,97.41
2019-03-03T00:52:19.855Z,97.89
2019-03-03T00:52:45.958Z,97.32
2019-03-03T00:53:12.064Z,97.13
2019-03-03T00:53:38.176Z,97.8
2019-03-03T00:54:04.279Z,97.7
2019-03-03T00:54:30.384Z,97.89
2019-03-03T00:54:56.496Z,97.8
2019-03-03T00:55:22.602Z,97.8
2019-03-03T00:55:48.705Z,97.99
2019-03-03T00:56:14.811Z,97.51
2019-03-03T00:56:40.920Z,97.51
2019-03-03T00:57:07.020Z,97.8
2019-03-03T00:57:33.128Z,97.7
2019-03-03T00:57:59.234Z,97.99
2019-03-03T00:58:25.346Z,97.8
2019-03-03T00:58:51.475Z,97.8
2019-03-03T00:59:17.584Z,97.8
2019-03-03T00:59:43.694Z,98.56
2019-03-03T01:00:09.796Z,98.56
2019-03-03T01:00:35.909Z,98.56
2019-03-03T01:01:02.014Z,98.18
2019-03-03T01:01:28.127Z,98.36
2019-03-03T01:01:54.232Z,98.56
2019-03-03T01:02:20.361Z,98.65
2019-03-03T01:02:46.477Z,98.08
2019-03-03T01:03:12.573Z,98.65
2019-03-03T01:03:38.686Z,98.56
2019-03-03T01:04:04.795Z,98.46
2019-03-03T01:04:30.942Z,98.36
2019-03-03T01:04:57.216Z,98.36
2019-03-03T01:05:23.260Z,98.46
2019-03-03T01:05:49.370Z,98.18
2019-03-03T01:06:15.476Z,98.08
2019-03-03T01:06:41.584Z,98.08
2019-03-03T01:07:07.687Z,98.18
2019-03-03T01:07:33.798Z,98.46
2019-03-03T01:07:59.907Z,98.56
2019-03-03T01:08:26.018Z,98.46
2019-03-03T01:08:52.119Z,98.36
2019-03-03T01:09:18.230Z,98.36
2019-03-03T01:09:44.331Z,98.56
2019-03-03T01:10:10.437Z,98.18
2019-03-03T01:10:36.542Z,98.56
2019-03-03T01:11:02.651Z,97.99
2019-03-03T01:11:28.755Z,98.27
2019-03-03T01:11:54.863Z,98.56
2019-03-03T01:12:20.974Z,98.56
2019-03-03T01:12:47.081Z,98.75
2019-03-03T01:13:13.188Z,97.99
2019-03-03T01:13:39.292Z,97.32
2019-03-03T01:14:06.149Z,97.7
2019-03-03T01:14:32.259Z,97.89
2019-03-03T01:14:58.359Z,97.8
2019-03-03T01:15:24.499Z,97.41
2019-03-03T01:15:50.605Z,97.61
2019-03-03T01:16:16.710Z,97.22
2019-03-03T01:16:42.822Z,97.32
2019-03-03T01:17:08.919Z,96.94
2019-03-03T01:17:35.029Z,97.41
2019-03-03T01:18:01.129Z,96.94
2019-03-03T01:18:27.240Z,96.94
2019-03-03T01:18:53.343Z,96.94
2019-03-03T01:19:19.445Z,96.75
2019-03-03T01:19:45.552Z,96.94
2019-03-03T01:20:11.668Z,96.65
2019-03-03T01:20:37.768Z,96.65
2019-03-03T01:21:03.883Z,96.84
2019-03-03T01:21:29.991Z,96.75
2019-03-03T01:21:56.093Z,97.22
2019-03-03T01:22:22.226Z,96.94
2019-03-03T01:22:48.342Z,96.84
2019-03-03T01:23:14.446Z,95.98
2019-03-03T01:23:40.552Z,96.56
2019-03-03T01:24:06.657Z,96.36
2019-03-03T01:24:32.764Z,96.36
2019-03-03T01:24:58.872Z,95.98
2019-03-03T01:25:24.982Z,96.17
2019-03-03T01:25:51.117Z,95.98
2019-03-03T01:26:17.230Z,95.79
2019-03-03T01:26:43.332Z,96.17
2019-03-03T01:27:09.436Z,96.27
2019-03-03T01:27:35.580Z,96.08
2019-03-03T01:28:01.679Z,96.36
2019-03-03T01:28:27.789Z,95.89
2019-03-03T01:28:53.893Z,95.79
2019-03-03T01:29:20.984Z,96.17
2019-03-03T01:29:47.122Z,95.98
2019-03-03T01:30:13.226Z,96.08
2019-03-03T01:30:39.391Z,95.89
2019-03-03T01:31:05.491Z,96.17
2019-03-03T01:31:31.601Z,95.89
2019-03-03T01:31:57.713Z,95.61
2019-03-03T01:32:23.853Z,96.17
2019-03-03T01:32:49.978Z,95.79
2019-03-03T01:33:16.089Z,95.79
2019-03-03T01:33:42.197Z,95.7
2019-03-03T01:34:08.298Z,95.89
2019-03-03T01:34:34.410Z,95.89
2019-03-03T01:35:00.520Z,95.61
2019-03-03T01:35:26.632Z,96.17
2019-03-03T01:35:52.737Z,96.08
2019-03-03T01:36:18.843Z,95.7
2019-03-03T01:36:44.948Z,95.61
2019-03-03T01:37:11.056Z,95.89
2019-03-03T01:37:37.165Z,95.61
2019-03-03T01:38:03.269Z,94.93
2019-03-03T01:38:29.381Z,95.12
2019-03-03T01:38:55.488Z,95.22
2019-03-03T01:39:21.584Z,95.22
2019-03-03T01:39:47.690Z,95.22
2019-03-03T01:40:13.805Z,95.32
2019-03-03T01:40:39.909Z,95.32
2019-03-03T01:41:06.375Z,95.7
2019-03-03T01:41:32.483Z,95.7
2019-03-03T01:41:58.592Z,95.7
2019-03-03T01:42:24.699Z,95.7
2019-03-03T01:42:50.844Z,95.79
2019-03-03T01:43:16.945Z,95.32
2019-03-03T01:43:43.074Z,95.12
2019-03-03T01:44:09.184Z,95.03
2019-03-03T01:44:35.286Z,95.22
2019-03-03T01:45:01.390Z,95.03
2019-03-03T01:45:27.493Z,95.22
2019-03-03T01:45:53.605Z,95.03
2019-03-03T01:46:19.713Z,94.93
2019-03-03T01:46:45.816Z,95.32
2019-03-03T01:47:11.925Z,95.41
2019-03-03T01:47:38.042Z,94.74
2019-03-03T01:48:04.148Z,95.32
2019-03-03T01:48:30.252Z,95.03
2019-03-03T01:48:56.360Z,95.32
2019-03-03T01:49:22.457Z,95.12
2019-03-03T01:49:48.566Z,95.41
2019-03-03T01:50:14.673Z,95.12
2019-03-03T01:50:40.803Z,95.12
2019-03-03T01:51:06.906Z,95.7
2019-03-03T01:51:33.019Z,95.03
2019-03-03T01:51:59.121Z,95.12
2019-03-03T01:52:25.234Z,94.93
2019-03-03T01:52:51.403Z,94.84
2019-03-03T01:53:17.533Z,95.03
2019-03-03T01:53:43.640Z,94.74
2019-03-03T01:54:09.753Z,94.56
2019-03-03T01:54:35.860Z,95.12
2019-03-03T01:55:01.964Z,94.37
2019-03-03T01:55:28.069Z,94.74
2019-03-03T01:55:54.179Z,94.74
2019-03-03T01:56:20.293Z,94.56
2019-03-03T01:56:46.422Z,94.65
2019-03-03T01:57:12.556Z,94.74
2019-03-03T01:57:38.669Z,94.65
2019-03-03T01:58:04.768Z,94.65
2019-03-03T01:58:30.883Z,94.65
2019-03-03T01:58:56.993Z,94.93
2019-03-03T01:59:23.095Z,94.37
2019-03-03T01:59:49.203Z,94.74
2019-03-03T02:00:15.308Z,94.84
2019-03-03T02:00:41.415Z,94.56
2019-03-03T02:01:07.521Z,94.37
2019-03-03T02:01:33.655Z,94.74
2019-03-03T02:01:59.762Z,93.98
2019-03-03T02:02:25.864Z,93.88
2019-03-03T02:02:51.973Z,93.51
2019-03-03T02:03:18.077Z,93.7
2019-03-03T02:03:44.184Z,93.98
2019-03-03T02:04:10.290Z,93.51
2019-03-03T02:04:36.397Z,93.32
2019-03-03T02:05:02.508Z,93.32
2019-03-03T02:05:28.612Z,93.51
2019-03-03T02:05:54.726Z,93.79
2019-03-03T02:06:20.861Z,93.79
2019-03-03T02:06:46.966Z,93.03
2019-03-03T02:07:13.063Z,93.41
2019-03-03T02:07:39.174Z,93.41
2019-03-03T02:08:05.306Z,93.32
2019-03-03T02:08:31.413Z,93.22
2019-03-03T02:08:57.511Z,93.32
2019-03-03T02:09:23.625Z,93.22
2019-03-03T02:09:49.724Z,93.32
2019-03-03T02:10:15.850Z,93.32
2019-03-03T02:10:41.957Z,93.32
2019-03-03T02:11:08.068Z,93.03
2019-03-03T02:11:34.173Z,92.46
2019-03-03T02:12:00.274Z,92.84
2019-03-03T02:12:26.385Z,92.27
2019-03-03T02:12:52.500Z,92.74
2019-03-03T02:13:18.607Z,92.74
2019-03-03T02:13:44.710Z,92.93
2019-03-03T02:14:10.824Z,92.55
2019-03-03T02:14:36.929Z,92.84
2019-03-03T02:15:03.039Z,93.03
2019-03-03T02:15:29.144Z,92.27
2019-03-03T02:15:55.252Z,92.74
2019-03-03T02:16:21.357Z,92.84
2019-03-03T02:16:47.467Z,92.84
2019-03-03T02:17:13.572Z,92.84
2019-03-03T02:17:39.682Z,93.03
2019-03-03T02:18:05.792Z,92.93
2019-03-03T02:18:31.892Z,91.98
2019-03-03T02:18:58.011Z,92.55
2019-03-03T02:19:24.102Z,92.46
2019-03-03T02:19:50.211Z,92.17
2019-03-03T02:20:16.320Z,92.46
2019-03-03T02:20:42.428Z,91.98
2019-03-03T02:21:08.530Z,92.08
2019-03-03T02:21:34.634Z,92.17
2019-03-03T02:22:00.781Z,92.36
2019-03-03T02:22:26.887Z,92.46
2019-03-03T02:22:52.990Z,92.46
2019-03-03T02:23:19.095Z,92.27
2019-03-03T02:23:45.241Z,92.08
2019-03-03T02:24:11.366Z,91.79
2019-03-03T02:24:37.475Z,91.79
2019-03-03T02:25:03.580Z,92.08
2019-03-03T02:25:29.691Z,91.6
2019-03-03T02:25:55.802Z,91.41
2019-03-03T02:26:21.904Z,91.6
2019-03-03T02:26:48.039Z,91.41
2019-03-03T02:27:14.145Z,91.69
2019-03-03T02:27:40.265Z,91.6
2019-03-03T02:28:06.355Z,91.31
2019-03-03T02:28:32.458Z,91.5
2019-03-03T02:28:58.568Z,91.6
2019-03-03T02:29:24.672Z,91.6
2019-03-03T02:29:50.775Z,91.13
2019-03-03T02:30:16.910Z,90.93
2019-03-03T02:30:43.021Z,91.03
2019-03-03T02:31:09.183Z,90.93
2019-03-03T02:31:35.315Z,90.93
2019-03-03T02:32:01.417Z,91.03
2019-03-03T02:32:27.522Z,91.22
2019-03-03T02:32:53.650Z,91.88
2019-03-03T02:33:19.782Z,91.03
2019-03-03T02:33:45.948Z,91.13
2019-03-03T02:34:12.060Z,91.22
2019-03-03T02:34:38.180Z,91.13
2019-03-03T02:35:04.348Z,91.22
2019-03-03T02:35:30.446Z,91.22
2019-03-03T02:35:56.553Z,91.22
2019-03-03T02:36:22.720Z,91.22
2019-03-03T02:36:48.821Z,91.03
2019-03-03T02:37:14.927Z,90.64
2019-03-03T02:37:41.036Z,90.64
2019-03-03T02:38:07.140Z,90.93
2019-03-03T02:38:33.261Z,90.84
2019-03-03T02:38:59.359Z,90.84
2019-03-03T02:39:25.496Z,90.36
2019-03-03T02:39:51.630Z,90.55
2019-03-03T02:40:17.744Z,89.69
2019-03-03T02:40:43.890Z,90.26
2019-03-03T02:41:10.040Z,90.26
2019-03-03T02:41:36.184Z,89.69
2019-03-03T02:42:02.381Z,89.79
2019-03-03T02:42:28.474Z,89.79
2019-03-03T02:42:54.613Z,89.79
2019-03-03T02:43:20.720Z,89.89
2019-03-03T02:43:46.833Z,89.83
2019-03-03T02:44:12.958Z,89.6
2019-03-03T02:44:39.116Z,89.98
2019-03-03T02:45:05.229Z,90.08
2019-03-03T02:45:31.337Z,90.08
2019-03-03T02:45:57.446Z,89.69
2019-03-03T02:46:23.641Z,89.79
2019-03-03T02:46:49.756Z,89.98
2019-03-03T02:47:15.850Z,89.98
2019-03-03T02:47:41.961Z,89.89
2019-03-03T02:48:08.092Z,90.08
2019-03-03T02:48:34.194Z,89.89
2019-03-03T02:49:00.305Z,90.08
2019-03-03T02:49:26.498Z,90.08
2019-03-03T02:49:52.600Z,89.89
2019-03-03T02:50:18.729Z,89.89
2019-03-03T02:50:44.846Z,90.08
2019-03-03T02:51:10.963Z,89.6
2019-03-03T02:51:37.054Z,89.79
2019-03-03T02:52:03.167Z,90.08
2019-03-03T02:52:29.262Z,89.69
2019-03-03T02:52:55.372Z,89.03
2019-03-03T02:53:21.474Z,89.22
2019-03-03T02:53:47.592Z,89.22
2019-03-03T02:54:13.684Z,89.89
2019-03-03T02:54:39.791Z,89.6
2019-03-03T02:55:05.930Z,89.89
2019-03-03T02:55:32.108Z,89.31
2019-03-03T02:55:58.220Z,89.12
2019-03-03T02:56:24.355Z,89.22
2019-03-03T02:56:50.455Z,89.22
2019-03-03T02:57:16.646Z,90.08
2019-03-03T02:57:42.785Z,89.69
2019-03-03T02:58:08.908Z,89.79
2019-03-03T02:58:35.017Z,89.31
2019-03-03T02:59:01.127Z,89.22
2019-03-03T02:59:27.290Z,89.12
2019-03-03T02:59:53.431Z,89.31
2019-03-03T03:00:19.572Z,89.4
2019-03-03T03:00:45.683Z,89.4
2019-03-03T03:01:11.786Z,89.4
2019-03-03T03:01:37.893Z,89.31
2019-03-03T03:02:04.003Z,89.31
2019-03-03T03:02:30.139Z,89.22
2019-03-03T03:02:56.305Z,89.89
2019-03-03T03:03:22.415Z,89.69
2019-03-03T03:03:48.522Z,89.89
2019-03-03T03:04:14.689Z,89.79
2019-03-03T03:04:40.791Z,89.79
2019-03-03T03:05:06.929Z,90.45
2019-03-03T03:05:33.040Z,90.17
2019-03-03T03:05:59.197Z,90.26
2019-03-03T03:06:25.332Z,90.26
2019-03-03T03:06:51.441Z,90.26
2019-03-03T03:07:17.544Z,90.84
2019-03-03T03:07:43.684Z,90.55
2019-03-03T03:08:09.824Z,90.64
2019-03-03T03:08:36.003Z,90.55
2019-03-03T03:09:02.108Z,90.64
2019-03-03T03:09:28.217Z,90.55
2019-03-03T03:09:54.363Z,90.64
2019-03-03T03:10:20.493Z,90.84
2019-03-03T03:10:46.632Z,90.93
2019-03-03T03:11:12.735Z,91.03
2019-03-03T03:11:38.850Z,90.74
2019-03-03T03:12:04.960Z,90.84
2019-03-03T03:12:31.069Z,91.41
2019-03-03T03:12:57.168Z,91.31
2019-03-03T03:13:23.307Z,91.03
2019-03-03T03:13:49.444Z,91.69
2019-03-03T03:14:15.548Z,91.22
2019-03-03T03:14:41.745Z,91.5
2019-03-03T03:15:07.844Z,91.5
2019-03-03T03:15:33.989Z,91.41
2019-03-03T03:16:01.083Z,91.5
2019-03-03T03:16:27.240Z,91.88
2019-03-03T03:16:53.350Z,91.69
2019-03-03T03:17:19.482Z,91.98
2019-03-03T03:17:45.604Z,92.08
2019-03-03T03:18:11.693Z,91.79
2019-03-03T03:18:37.804Z,91.6
2019-03-03T03:19:03.909Z,91.5
2019-03-03T03:19:30.039Z,91.03
2019-03-03T03:19:56.146Z,91.69
2019-03-03T03:20:22.255Z,91.6
2019-03-03T03:20:48.394Z,91.6
2019-03-03T03:21:14.523Z,91.88
2019-03-03T03:21:40.634Z,90.93
2019-03-03T03:22:06.771Z,91.41
2019-03-03T03:22:32.877Z,91.41
2019-03-03T03:22:59.008Z,91.41
2019-03-03T03:23:25.122Z,91.6
2019-03-03T03:23:51.228Z,91.6
2019-03-03T03:24:17.366Z,91.03
2019-03-03T03:24:43.473Z,90.93
2019-03-03T03:25:09.581Z,91.22
2019-03-03T03:25:35.715Z,91.03
2019-03-03T03:26:01.839Z,90.74
2019-03-03T03:26:27.941Z,90.74
2019-03-03T03:26:54.054Z,90.93
2019-03-03T03:27:21.156Z,91.03
2019-03-03T03:27:47.265Z,91.31
2019-03-03T03:28:13.371Z,91.79
2019-03-03T03:28:39.473Z,91.13
2019-03-03T03:29:05.581Z,91.13
2019-03-03T03:29:31.724Z,91.03
2019-03-03T03:29:57.823Z,91.5
2019-03-03T03:30:23.955Z,91.31
2019-03-03T03:30:50.107Z,91.41
2019-03-03T03:31:16.233Z,91.5
2019-03-03T03:31:42.340Z,91.79
2019-03-03T03:32:08.462Z,91.69
2019-03-03T03:32:34.642Z,91.79
2019-03-03T03:33:00.756Z,91.41
2019-03-03T03:33:26.895Z,91.5
2019-03-03T03:33:53.055Z,91.41
2019-03-03T03:34:19.174Z,91.5
2019-03-03T03:34:45.300Z,91.6
2019-03-03T03:35:11.522Z,91.69
2019-03-03T03:35:37.656Z,91.5
2019-03-03T03:36:03.768Z,91.41
2019-03-03T03:36:29.868Z,91.6
2019-03-03T03:36:56.970Z,91.03
2019-03-03T03:37:23.071Z,91.13
2019-03-03T03:37:49.202Z,91.03
2019-03-03T03:38:15.311Z,90.93
2019-03-03T03:38:41.479Z,91.13
2019-03-03T03:39:07.605Z,90.74
2019-03-03T03:39:33.741Z,90.93
2019-03-03T03:39:59.869Z,91.13
2019-03-03T03:40:26.006Z,91.03
2019-03-03T03:40:52.173Z,90.74
2019-03-03T03:41:18.373Z,90.93
2019-03-03T03:41:44.527Z,91.03
2019-03-03T03:42:10.665Z,90.93
2019-03-03T03:42:36.808Z,90.93
2019-03-03T03:43:02.938Z,90.93
2019-03-03T03:43:29.074Z,91.22
2019-03-03T03:43:55.210Z,91.03
2019-03-03T03:44:21.322Z,91.41
2019-03-03T03:44:47.435Z,91.31
2019-03-03T03:45:13.566Z,91.13
2019-03-03T03:45:39.700Z,91.03
2019-03-03T03:46:05.815Z,90.84
2019-03-03T03:46:31.920Z,90.55
2019-03-03T03:46:58.079Z,90.55
2019-03-03T03:47:24.187Z,90.64
2019-03-03T03:47:50.302Z,90.64
2019-03-03T03:48:16.391Z,90.74
2019-03-03T03:48:42.521Z,90.64
2019-03-03T03:49:08.616Z,90.55
2019-03-03T03:49:34.723Z,90.55
2019-03-03T03:50:00.830Z,90.55
2019-03-03T03:50:26.936Z,90.55
2019-03-03T03:50:53.040Z,90.84
2019-03-03T03:51:19.172Z,90.64
2019-03-03T03:51:45.318Z,90.84
2019-03-03T03:52:11.429Z,91.03
2019-03-03T03:52:37.533Z,90.36
2019-03-03T03:53:03.664Z,90.36
2019-03-03T03:53:29.770Z,90.64
2019-03-03T03:53:55.899Z,90.64
2019-03-03T03:54:22.039Z,90.45
2019-03-03T03:54:48.137Z,90.55
2019-03-03T03:55:14.253Z,90.55
2019-03-03T03:55:40.354Z,90.26
2019-03-03T03:56:06.499Z,90.36
2019-03-03T03:56:32.648Z,90.17
2019-03-03T03:56:58.787Z,90.45
2019-03-03T03:57:24.926Z,89.98
2019-03-03T03:57:51.056Z,90.26
2019-03-03T03:58:17.161Z,90.08
2019-03-03T03:58:43.277Z,89.89
2019-03-03T03:59:09.384Z,90.08
2019-03-03T03:59:35.510Z,89.89
2019-03-03T04:00:01.614Z,90.26
2019-03-03T04:00:27.719Z,90.26
2019-03-03T04:00:53.858Z,90.45
2019-03-03T04:01:19.988Z,90.36
2019-03-03T04:01:46.090Z,90.45
2019-03-03T04:02:12.200Z,90.45
2019-03-03T04:02:38.303Z,90.36
2019-03-03T04:03:04.413Z,90.45
2019-03-03T04:03:30.545Z,90.45
2019-03-03T04:03:56.659Z,90.26
2019-03-03T04:04:22.763Z,90.45
2019-03-03T04:04:48.863Z,89.98
2019-03-03T04:05:14.996Z,89.89
2019-03-03T04:05:41.135Z,90.45
2019-03-03T04:06:07.250Z,90.64
2019-03-03T04:06:33.387Z,91.03
2019-03-03T04:06:59.553Z,90.64
2019-03-03T04:07:25.656Z,90.64
2019-03-03T04:07:51.762Z,90.64
2019-03-03T04:08:17.871Z,90.26
2019-03-03T04:08:43.981Z,90.45
2019-03-03T04:09:11.077Z,90.36
2019-03-03T04:09:37.199Z,90.45
2019-03-03T04:10:03.302Z,90.64
2019-03-03T04:10:29.393Z,90.45
2019-03-03T04:10:55.507Z,89.69
2019-03-03T04:11:21.619Z,90.26
2019-03-03T04:11:47.721Z,90.26
2019-03-03T04:12:13.842Z,90.45
2019-03-03T04:12:39.935Z,90.45
2019-03-03T04:13:06.044Z,90.45
2019-03-03T04:13:32.160Z,90.45
2019-03-03T04:13:58.263Z,90.36
2019-03-03T04:14:24.373Z,90.26
2019-03-03T04:14:51.496Z,90.45
2019-03-03T04:15:17.639Z,90.45
2019-03-03T04:15:43.795Z,90.64
2019-03-03T04:16:09.927Z,90.36
2019-03-03T04:16:36.028Z,90.55
2019-03-03T04:17:02.147Z,90.55
2019-03-03T04:17:28.246Z,90.45
2019-03-03T04:17:54.388Z,90.74
2019-03-03T04:18:20.518Z,90.26
2019-03-03T04:18:46.624Z,90.26
2019-03-03T04:19:12.733Z,90.55
2019-03-03T04:19:38.839Z,90.55
2019-03-03T04:20:04.950Z,90.26
2019-03-03T04:20:31.052Z,90.45
2019-03-03T04:20:57.157Z,90.55
2019-03-03T04:21:23.293Z,90.45
2019-03-03T04:21:49.403Z,90.26
2019-03-03T04:22:15.505Z,90.26
2019-03-03T04:22:41.647Z,90.45
2019-03-03T04:23:07.784Z,90.45
2019-03-03T04:23:33.889Z,90.64
2019-03-03T04:24:00.002Z,90.84
2019-03-03T04:24:26.189Z,90.55
2019-03-03T04:24:52.317Z,90.36
2019-03-03T04:25:18.420Z,90.64
2019-03-03T04:25:44.522Z,90.64
2019-03-03T04:26:10.625Z,90.55
2019-03-03T04:26:36.745Z,90.26
2019-03-03T04:27:02.842Z,90.64
2019-03-03T04:27:28.957Z,90.64
2019-03-03T04:27:55.065Z,90.64
2019-03-03T04:28:21.171Z,90.84
2019-03-03T04:28:47.301Z,90.55
2019-03-03T04:29:13.411Z,90.45
2019-03-03T04:29:39.531Z,90.74
2019-03-03T04:30:05.678Z,90.64
2019-03-03T04:30:31.788Z,90.45
2019-03-03T04:30:57.924Z,90.64
2019-03-03T04:31:24.045Z,90.84
2019-03-03T04:31:50.211Z,90.64
2019-03-03T04:32:16.313Z,91.03
2019-03-03T04:32:42.420Z,90.74
2019-03-03T04:33:08.559Z,90.93
2019-03-03T04:33:34.669Z,90.55
2019-03-03T04:34:00.772Z,90.26
2019-03-03T04:34:27.865Z,90.45
2019-03-03T04:34:53.996Z,90.26
2019-03-03T04:35:20.100Z,90.26
2019-03-03T04:35:46.210Z,90.74
2019-03-03T04:36:12.307Z,90.55
2019-03-03T04:36:38.415Z,90.84
2019-03-03T04:37:04.544Z,90.55
2019-03-03T04:37:30.648Z,90.84
2019-03-03T04:37:56.758Z,90.84
2019-03-03T04:38:22.863Z,90.84
2019-03-03T04:38:48.974Z,90.93
2019-03-03T04:39:15.080Z,90.93
2019-03-03T04:39:41.185Z,91.69
2019-03-03T04:40:07.318Z,91.88
2019-03-03T04:40:33.422Z,92.08
2019-03-03T04:40:59.533Z,92.08
2019-03-03T04:41:25.638Z,93.03
2019-03-03T04:41:51.751Z,92.65
2019-03-03T04:42:17.848Z,92.74
2019-03-03T04:42:43.955Z,92.46
2019-03-03T04:43:10.061Z,92.74
2019-03-03T04:43:36.187Z,92.84
2019-03-03T04:44:02.300Z,93.03
2019-03-03T04:44:28.400Z,93.12
2019-03-03T04:44:54.535Z,93.98
2019-03-03T04:45:20.637Z,94.56
2019-03-03T04:45:46.746Z,95.03
2019-03-03T04:46:12.850Z,96.27
2019-03-03T04:46:38.957Z,96.75
2019-03-03T04:47:05.063Z,97.7
2019-03-03T04:47:31.171Z,98.36
2019-03-03T04:47:57.281Z,98.08
2019-03-03T04:48:23.385Z,98.75
2019-03-03T04:48:49.517Z,98.94
2019-03-03T04:49:15.634Z,98.94
2019-03-03T04:49:41.738Z,98.75
2019-03-03T04:50:07.843Z,99.41
2019-03-03T04:50:33.947Z,99.32
2019-03-03T04:51:00.079Z,99.41
2019-03-03T04:51:26.194Z,99.99
2019-03-03T04:51:52.291Z,99.99
2019-03-03T04:52:18.394Z,99.99
2019-03-03T04:52:44.513Z,99.99
2019-03-03T04:53:10.612Z,99.99
2019-03-03T04:53:36.748Z,99.99
2019-03-03T04:54:02.851Z,99.99
2019-03-03T04:54:28.989Z,99.99
2019-03-03T04:54:55.093Z,99.99
2019-03-03T04:55:21.197Z,99.99
2019-03-03T04:55:47.302Z,99.99
2019-03-03T04:56:13.402Z,99.99
2019-03-03T04:56:39.504Z,99.99
2019-03-03T04:57:05.613Z,99.99
2019-03-03T04:57:31.716Z,99.99
2019-03-03T04:57:57.826Z,99.99
2019-03-03T04:58:23.931Z,99.99
2019-03-03T04:58:50.042Z,99.99
2019-03-03T04:59:16.151Z,99.99
2019-03-03T04:59:42.254Z,99.99
2019-03-03T05:00:08.354Z,99.99
2019-03-03T05:00:34.467Z,99.99
2019-03-03T05:01:00.578Z,99.99
2019-03-03T05:01:26.678Z,99.99
2019-03-03T05:01:52.790Z,99.99
2019-03-03T05:02:18.923Z,99.99
2019-03-03T05:02:45.030Z,99.99
2019-03-03T05:03:11.138Z,99.99
2019-03-03T05:03:37.272Z,99.99
2019-03-03T05:04:03.380Z,99.99
2019-03-03T05:04:29.493Z,99.99
2019-03-03T05:04:55.597Z,99.99
2019-03-03T05:05:21.702Z,99.99
2019-03-03T05:05:47.832Z,99.99
2019-03-03T05:06:13.940Z,99.99
2019-03-03T05:06:40.046Z,99.99
2019-03-03T05:07:06.192Z,99.99
2019-03-03T05:07:32.288Z,99.99
2019-03-03T05:07:58.389Z,99.99
2019-03-03T05:08:24.498Z,99.99
2019-03-03T05:08:50.599Z,99.99
2019-03-03T05:09:16.715Z,99.99
2019-03-03T05:09:42.820Z,99.99
2019-03-03T05:10:08.927Z,99.99
2019-03-03T05:10:35.028Z,99.99
2019-03-03T05:11:01.136Z,99.99
2019-03-03T05:11:28.176Z,99.99
2019-03-03T05:11:54.306Z,99.99
2019-03-03T05:12:20.407Z,99.99
2019-03-03T05:12:46.518Z,99.99
2019-03-03T05:13:12.623Z,99.99
2019-03-03T05:13:38.730Z,99.99
2019-03-03T05:14:04.833Z,99.99
2019-03-03T05:14:30.965Z,99.99
2019-03-03T05:14:57.066Z,99.99
2019-03-03T05:15:23.178Z,99.99
2019-03-03T05:15:49.277Z,99.99
2019-03-03T05:16:15.385Z,99.99
2019-03-03T05:16:41.492Z,99.99
2019-03-03T05:17:08.732Z,99.99
2019-03-03T05:17:34.687Z,99.99
2019-03-03T05:18:00.796Z,99.99
2019-03-03T05:18:26.895Z,99.99
2019-03-03T05:18:53.030Z,99.99
2019-03-03T05:19:19.143Z,99.99
2019-03-03T05:19:45.254Z,99.99
2019-03-03T05:20:11.377Z,99.99
2019-03-03T05:20:37.480Z,99.99
2019-03-03T05:21:03.586Z,99.99
2019-03-03T05:21:29.686Z,99.99
2019-03-03T05:21:55.791Z,99.99
2019-03-03T05:22:21.902Z,99.99
2019-03-03T05:22:48.005Z,99.99
2019-03-03T05:23:14.114Z,99.99
2019-03-03T05:23:40.228Z,99.99
2019-03-03T05:24:06.332Z,99.99
2019-03-03T05:24:34.393Z,99.99
2019-03-03T05:25:00.528Z,99.99
2019-03-03T05:25:26.688Z,99.99
2019-03-03T05:25:52.790Z,99.99
2019-03-03T05:26:18.891Z,99.99
2019-03-03T05:26:45.000Z,99.99
2019-03-03T05:27:11.107Z,99.99
2019-03-03T05:27:37.238Z,99.99
2019-03-03T05:28:03.347Z,99.99
2019-03-03T05:28:29.486Z,99.99
2019-03-03T05:28:55.558Z,99.99
2019-03-03T05:29:21.670Z,99.99
2019-03-03T05:29:47.771Z,99.99
2019-03-03T05:30:13.881Z,99.99
2019-03-03T05:30:39.993Z,99.99
2019-03-03T05:31:06.098Z,99.99
2019-03-03T05:31:32.198Z,99.99
2019-03-03T05:31:58.307Z,99.99
2019-03-03T05:32:24.418Z,99.99
2019-03-03T05:32:50.524Z,99.99
2019-03-03T05:33:16.632Z,99.99
2019-03-03T05:33:42.736Z,99.99
2019-03-03T05:34:08.842Z,99.99
2019-03-03T05:34:34.952Z,99.99
2019-03-03T05:35:01.061Z,99.99
2019-03-03T05:35:27.260Z,99.99
2019-03-03T05:35:53.371Z,99.99
2019-03-03T05:36:19.501Z,99.99
2019-03-03T05:36:45.603Z,99.99
2019-03-03T05:37:11.711Z,99.99